Time;durP1;ratioP1;P1;durP2;ratioP2;P2;SDS_P1;SDS_P2;PMS_P1;PMS_P2;Temp;Humidity;BMP_temperature;BMP_pressure;BME280_temperature;BME280_humidity;BME280_pressure;Samples;Min_cycle;Max_cycle;Signal;HPM_P1;HPM_P2
2022/10/07 00:01:45;;;;;;;8.98;4.20;;;;;;;;;;5002107;28;20050;-79
2022/10/07 00:04:11;;;;;;;10.90;4.78;;;;;;;;;;5011227;28;20050;-78
2022/10/07 00:06:37;;;;;;;10.93;4.10;;;;;;;;;;4998367;28;20072;-78
2022/10/07 00:09:03;;;;;;;10.15;3.70;;;;;;;;;;5007939;28;20456;-78
2022/10/07 00:11:29;;;;;;;8.20;3.40;;;;;;;;;;5007432;28;20038;-78
2022/10/07 00:13:59;;;;;;;10.38;4.00;;;;;;;;;;5009774;28;20338;-78
2022/10/07 00:16:27;;;;;;;11.52;3.90;;;;;;;;;;4999543;28;20140;-79
2022/10/07 00:18:57;;;;;;;11.13;4.53;;;;;;;;;;5007621;28;20389;-78
2022/10/07 00:21:23;;;;;;;9.80;4.03;;;;;;;;;;5009674;28;20041;-78
2022/10/07 00:23:50;;;;;;;9.93;4.32;;;;;;;;;;5008955;28;20034;-78
2022/10/07 00:26:17;;;;;;;11.40;4.65;;;;;;;;;;5011374;28;20438;-79
2022/10/07 00:28:43;;;;;;;10.98;4.50;;;;;;;;;;5008811;28;20077;-79
2022/10/07 00:31:11;;;;;;;10.45;4.47;;;;;;;;;;5001977;28;20038;-78
2022/10/07 00:33:38;;;;;;;10.73;4.30;;;;;;;;;;4997819;28;20049;-78
2022/10/07 00:36:12;;;;;;;10.00;4.88;;;;;;;;;;5006402;28;20034;-78
2022/10/07 00:38:38;;;;;;;18.63;6.03;;;;;;;;;;5003680;28;20034;-78
2022/10/07 00:41:05;;;;;;;14.48;5.22;;;;;;;;;;5012957;28;20030;-78
2022/10/07 00:43:31;;;;;;;12.20;5.00;;;;;;;;;;5016372;28;20113;-78
2022/10/07 00:46:05;;;;;;;13.40;5.03;;;;;;;;;;5014120;28;20895;-78
2022/10/07 00:48:32;;;;;;;11.98;4.93;;;;;;;;;;5005186;28;20525;-78
2022/10/07 00:50:59;;;;;;;16.25;5.38;;;;;;;;;;5025432;28;20037;-78
2022/10/07 00:53:26;;;;;;;14.15;6.72;;;;;;;;;;5009744;28;20033;-78
2022/10/07 00:55:54;;;;;;;16.48;5.80;;;;;;;;;;5005529;28;20061;-78
2022/10/07 00:58:22;;;;;;;13.13;5.78;;;;;;;;;;5005821;28;20025;-79
2022/10/07 01:00:48;;;;;;;16.73;5.40;;;;;;;;;;5002317;28;20703;-78
2022/10/07 01:03:14;;;;;;;13.07;5.60;;;;;;;;;;5005710;28;20029;-78
2022/10/07 01:05:40;;;;;;;16.35;5.30;;;;;;;;;;5017246;28;20033;-78
2022/10/07 01:08:06;;;;;;;10.43;4.93;;;;;;;;;;5009829;28;20033;-78
2022/10/07 01:10:55;;;;;;;13.32;4.72;;;;;;;;;;5016449;28;20040;-78
2022/10/07 01:13:21;;;;;;;15.93;4.40;;;;;;;;;;5020309;28;20022;-78
2022/10/07 01:16:12;;;;;;;15.10;5.82;;;;;;;;;;5005049;28;20049;-78
2022/10/07 01:19:10;;;;;;;11.93;4.57;;;;;;;;;;5005122;28;20038;-78
2022/10/07 01:21:36;;;;;;;11.52;4.50;;;;;;;;;;4963450;28;20489;-79
2022/10/07 01:24:05;;;;;;;11.43;4.55;;;;;;;;;;5006264;28;20081;-78
2022/10/07 01:26:39;;;;;;;15.15;5.70;;;;;;;;;;5016628;28;20042;-78
2022/10/07 01:29:12;;;;;;;11.35;4.32;;;;;;;;;;5003699;28;20062;-79
2022/10/07 01:31:41;;;;;;;14.20;4.68;;;;;;;;;;5009933;28;20787;-78
2022/10/07 01:34:09;;;;;;;11.32;4.47;;;;;;;;;;5004913;28;20056;-78
2022/10/07 01:36:36;;;;;;;10.07;4.63;;;;;;;;;;5010239;28;20133;-78
2022/10/07 01:39:04;;;;;;;9.52;4.80;;;;;;;;;;5018530;28;20045;-79
2022/10/07 01:41:31;;;;;;;12.13;4.47;;;;;;;;;;5000769;28;20041;-78
2022/10/07 01:43:57;;;;;;;10.07;4.00;;;;;;;;;;5010949;28;20041;-78
2022/10/07 01:46:25;;;;;;;11.35;5.90;;;;;;;;;;5000007;28;20092;-79
2022/10/07 01:48:52;;;;;;;19.10;5.80;;;;;;;;;;5021408;28;20041;-78
2022/10/07 01:51:20;;;;;;;10.50;5.78;;;;;;;;;;5019536;28;20030;-79
2022/10/07 01:54:05;;;;;;;13.02;5.03;;;;;;;;;;5005640;28;20031;-78
2022/10/07 01:56:37;;;;;;;14.82;5.38;;;;;;;;;;5008265;28;20128;-79
2022/10/07 01:59:06;;;;;;;13.65;5.05;;;;;;;;;;4992326;28;20037;-78
2022/10/07 02:01:50;;;;;;;12.60;4.90;;;;;;;;;;5012406;28;20389;-78
2022/10/07 02:04:29;;;;;;;10.02;5.20;;;;;;;;;;5007033;28;20037;-78
2022/10/07 02:07:03;;;;;;;13.43;4.65;;;;;;;;;;5007376;28;20029;-78
2022/10/07 02:09:35;;;;;;;13.50;4.82;;;;;;;;;;5011311;28;20044;-78
2022/10/07 02:12:09;;;;;;;14.63;5.00;;;;;;;;;;5005524;28;20366;-78
2022/10/07 02:15:07;;;;;;;14.07;5.13;;;;;;;;;;5005200;28;20034;-79
2022/10/07 02:17:36;;;;;;;13.48;4.20;;;;;;;;;;4959965;28;20038;-78
2022/10/07 02:20:03;;;;;;;11.13;4.30;;;;;;;;;;4996730;28;20053;-78
2022/10/07 02:22:29;;;;;;;10.60;4.40;;;;;;;;;;5017596;28;20105;-79
2022/10/07 02:24:58;;;;;;;10.73;4.07;;;;;;;;;;5011056;28;20046;-78
2022/10/07 02:27:27;;;;;;;9.75;3.95;;;;;;;;;;5008978;28;20032;-78
2022/10/07 02:29:56;;;;;;;11.02;5.10;;;;;;;;;;4995073;28;20761;-78
2022/10/07 02:32:25;;;;;;;11.40;4.20;;;;;;;;;;5007197;28;20030;-78
2022/10/07 02:34:57;;;;;;;13.27;4.40;;;;;;;;;;5004534;28;20054;-78
2022/10/07 02:37:24;;;;;;;14.70;4.80;;;;;;;;;;5010812;28;20372;-78
2022/10/07 02:39:51;;;;;;;12.32;4.60;;;;;;;;;;5010676;28;20041;-78
2022/10/07 02:42:24;;;;;;;11.77;4.35;;;;;;;;;;5001861;28;20035;-78
2022/10/07 02:44:50;;;;;;;14.45;5.25;;;;;;;;;;5009517;28;20129;-78
2022/10/07 02:47:16;;;;;;;12.88;4.75;;;;;;;;;;4999233;28;20109;-78
2022/10/07 02:49:44;;;;;;;11.48;5.43;;;;;;;;;;5001736;28;20434;-78
2022/10/07 02:52:15;;;;;;;9.07;4.63;;;;;;;;;;5004652;28;20108;-78
2022/10/07 02:55:02;;;;;;;17.15;4.95;;;;;;;;;;5015576;28;20030;-78
2022/10/07 02:57:30;;;;;;;7.38;4.13;;;;;;;;;;5003301;28;20056;-78
2022/10/07 02:59:57;;;;;;;14.18;4.93;;;;;;;;;;5006255;28;20429;-78
2022/10/07 03:02:43;;;;;;;10.60;4.68;;;;;;;;;;5006449;28;20113;-78
2022/10/07 03:05:11;;;;;;;11.18;4.75;;;;;;;;;;5012515;28;20065;-78
2022/10/07 03:07:37;;;;;;;10.25;4.25;;;;;;;;;;5007108;28;20052;-78
2022/10/07 03:10:03;;;;;;;12.23;4.50;;;;;;;;;;4991194;28;20041;-78
2022/10/07 03:12:29;;;;;;;8.63;4.78;;;;;;;;;;5009164;28;20045;-78
2022/10/07 03:14:56;;;;;;;12.38;4.28;;;;;;;;;;5001430;28;20085;-78
2022/10/07 03:17:22;;;;;;;12.80;4.38;;;;;;;;;;5012666;28;20119;-78
2022/10/07 03:19:48;;;;;;;11.07;4.65;;;;;;;;;;5008487;28;20473;-78
2022/10/07 03:22:14;;;;;;;13.07;4.65;;;;;;;;;;5005166;28;20036;-78
2022/10/07 03:24:41;;;;;;;12.18;4.20;;;;;;;;;;4999485;28;20084;-78
2022/10/07 03:27:08;;;;;;;11.77;4.32;;;;;;;;;;5002342;28;20456;-78
2022/10/07 03:29:34;;;;;;;11.13;4.47;;;;;;;;;;5000337;28;20030;-78
2022/10/07 03:32:01;;;;;;;8.70;4.25;;;;;;;;;;5000158;28;20114;-78
2022/10/07 03:34:27;;;;;;;7.10;3.72;;;;;;;;;;5008880;28;20042;-78
2022/10/07 03:36:54;;;;;;;14.98;5.15;;;;;;;;;;5015014;28;20520;-78
2022/10/07 03:39:20;;;;;;;8.50;4.43;;;;;;;;;;5007148;28;20042;-78
2022/10/07 03:41:48;;;;;;;8.50;4.00;;;;;;;;;;5002972;28;20740;-78
2022/10/07 03:44:15;;;;;;;9.82;4.75;;;;;;;;;;4997057;28;20088;-78
2022/10/07 03:46:41;;;;;;;10.90;4.35;;;;;;;;;;5009525;28;20030;-78
2022/10/07 03:49:07;;;;;;;9.13;3.80;;;;;;;;;;5003991;28;20041;-78
2022/10/07 03:51:34;;;;;;;9.18;3.70;;;;;;;;;;5002316;28;20520;-78
2022/10/07 03:54:01;;;;;;;8.32;4.05;;;;;;;;;;5005731;28;20527;-78
2022/10/07 03:56:27;;;;;;;12.05;4.85;;;;;;;;;;4999427;28;20041;-78
2022/10/07 03:58:54;;;;;;;13.60;4.88;;;;;;;;;;5000328;28;20042;-78
2022/10/07 04:01:20;;;;;;;13.98;5.57;;;;;;;;;;5002204;28;20034;-78
2022/10/07 04:03:46;;;;;;;14.27;5.47;;;;;;;;;;5003765;28;20034;-78
2022/10/07 04:06:12;;;;;;;13.68;5.40;;;;;;;;;;5009417;28;20046;-78
2022/10/07 04:08:39;;;;;;;14.60;5.10;;;;;;;;;;5010245;28;20477;-78
2022/10/07 04:11:06;;;;;;;18.83;7.45;;;;;;;;;;5016597;28;20022;-78
2022/10/07 04:13:32;;;;;;;10.68;5.07;;;;;;;;;;5007844;28;20034;-78
2022/10/07 04:16:04;;;;;;;12.68;5.90;;;;;;;;;;5020561;28;20037;-78
2022/10/07 04:18:30;;;;;;;10.32;4.75;;;;;;;;;;5012891;28;20112;-78
2022/10/07 04:20:59;;;;;;;11.05;4.97;;;;;;;;;;5005212;28;20523;-78
2022/10/07 04:23:25;;;;;;;10.00;4.80;;;;;;;;;;5012268;28;20026;-77
2022/10/07 04:25:51;;;;;;;9.32;5.35;;;;;;;;;;5015881;28;20499;-78
2022/10/07 04:28:21;;;;;;;10.07;5.78;;;;;;;;;;5020745;28;20037;-78
2022/10/07 04:30:50;;;;;;;11.98;6.38;;;;;;;;;;4999198;28;20034;-78
2022/10/07 04:33:25;;;;;;;11.40;5.28;;;;;;;;;;4996756;28;20693;-78
2022/10/07 04:35:51;;;;;;;12.55;5.82;;;;;;;;;;5019447;28;20042;-78
2022/10/07 04:38:17;;;;;;;11.98;5.65;;;;;;;;;;5000418;28;20492;-78
2022/10/07 04:40:45;;;;;;;11.10;5.32;;;;;;;;;;5002336;28;20041;-78
2022/10/07 04:43:18;;;;;;;10.80;5.22;;;;;;;;;;5019905;28;20040;-78
2022/10/07 04:45:45;;;;;;;9.30;5.05;;;;;;;;;;5009599;28;20041;-78
2022/10/07 04:48:11;;;;;;;12.77;4.55;;;;;;;;;;5013345;28;20896;-78
2022/10/07 04:50:37;;;;;;;9.40;5.18;;;;;;;;;;5019369;28;20042;-78
2022/10/07 04:53:06;;;;;;;10.77;4.60;;;;;;;;;;5008494;28;20121;-77
2022/10/07 04:55:39;;;;;;;11.25;5.22;;;;;;;;;;4996494;28;20094;-78
2022/10/07 04:58:05;;;;;;;12.52;4.50;;;;;;;;;;5006187;28;20037;-78
2022/10/07 05:00:31;;;;;;;10.70;5.28;;;;;;;;;;5012221;28;20038;-78
2022/10/07 05:02:57;;;;;;;11.02;4.75;;;;;;;;;;5005303;28;20044;-77
2022/10/07 05:05:24;;;;;;;16.20;5.00;;;;;;;;;;5013213;28;20712;-77
2022/10/07 05:07:51;;;;;;;14.10;5.35;;;;;;;;;;5008391;28;20065;-77
2022/10/07 05:10:17;;;;;;;11.52;5.28;;;;;;;;;;5009590;28;20038;-78
2022/10/07 05:12:43;;;;;;;13.50;5.68;;;;;;;;;;5005375;28;20033;-77
2022/10/07 05:15:09;;;;;;;10.98;5.68;;;;;;;;;;5002308;28;20085;-78
2022/10/07 05:17:35;;;;;;;16.88;5.55;;;;;;;;;;5008195;28;20055;-77
2022/10/07 05:20:03;;;;;;;13.18;5.80;;;;;;;;;;5005266;28;20034;-79
2022/10/07 05:22:30;;;;;;;16.00;6.55;;;;;;;;;;5016254;28;20033;-78
2022/10/07 05:24:56;;;;;;;14.68;6.05;;;;;;;;;;5002159;28;21017;-78
2022/10/07 05:27:22;;;;;;;11.57;6.10;;;;;;;;;;5001445;28;20823;-78
2022/10/07 05:29:48;;;;;;;19.50;7.18;;;;;;;;;;5015777;28;20040;-78
2022/10/07 05:32:14;;;;;;;17.30;6.15;;;;;;;;;;5009857;28;20033;-78
2022/10/07 05:34:40;;;;;;;20.60;7.45;;;;;;;;;;5007034;28;20125;-78
2022/10/07 05:37:06;;;;;;;15.48;5.90;;;;;;;;;;5005945;28;20038;-78
2022/10/07 05:39:32;;;;;;;16.85;6.20;;;;;;;;;;5007926;28;20037;-78
2022/10/07 05:41:59;;;;;;;19.45;6.38;;;;;;;;;;5004769;28;20037;-78
2022/10/07 05:44:25;;;;;;;15.40;5.70;;;;;;;;;;5009648;28;20774;-78
2022/10/07 05:46:51;;;;;;;15.52;6.45;;;;;;;;;;5017876;28;20037;-77
2022/10/07 05:49:17;;;;;;;14.35;5.88;;;;;;;;;;5009711;28;20042;-78
2022/10/07 05:51:43;;;;;;;14.93;6.57;;;;;;;;;;5007932;28;20054;-78
2022/10/07 05:54:10;;;;;;;16.58;6.95;;;;;;;;;;5001322;28;20125;-77
2022/10/07 05:56:36;;;;;;;19.13;6.53;;;;;;;;;;5018438;28;20030;-78
2022/10/07 05:59:02;;;;;;;22.77;7.70;;;;;;;;;;5006605;28;20731;-78
2022/10/07 06:01:28;;;;;;;17.20;7.45;;;;;;;;;;5002868;28;20034;-78
2022/10/07 06:03:56;;;;;;;19.77;6.32;;;;;;;;;;5011506;28;20029;-78
2022/10/07 06:06:22;;;;;;;15.60;7.30;;;;;;;;;;5011798;28;20042;-78
2022/10/07 06:08:48;;;;;;;16.08;6.55;;;;;;;;;;5008476;28;20033;-78
2022/10/07 06:14:00;;;;;;;13.88;7.55;;;;;;;;;;5003399;28;20048;-78
2022/10/07 06:16:26;;;;;;;16.13;8.52;;;;;;;;;;5018000;28;20041;-78
2022/10/07 06:18:53;;;;;;;16.02;7.97;;;;;;;;;;5007834;28;20038;-78
2022/10/07 06:21:20;;;;;;;15.65;7.28;;;;;;;;;;5011187;28;20034;-78
2022/10/07 06:23:53;;;;;;;22.35;9.05;;;;;;;;;;4996157;28;20041;-78
2022/10/07 06:26:19;;;;;;;18.65;9.57;;;;;;;;;;5000176;28;20044;-78
2022/10/07 06:28:45;;;;;;;19.65;9.88;;;;;;;;;;4999916;28;20621;-78
2022/10/07 06:31:13;;;;;;;24.92;10.93;;;;;;;;;;5019208;28;20559;-77
2022/10/07 06:33:39;;;;;;;19.70;12.52;;;;;;;;;;5007780;28;20030;-78
2022/10/07 06:36:06;;;;;;;23.17;10.40;;;;;;;;;;4999255;28;20039;-78
2022/10/07 06:38:32;;;;;;;17.98;9.45;;;;;;;;;;5001693;28;20049;-78
2022/10/07 06:41:01;;;;;;;23.05;11.07;;;;;;;;;;5007656;28;20038;-77
2022/10/07 06:43:32;;;;;;;20.35;10.80;;;;;;;;;;5004368;28;20056;-77
2022/10/07 06:46:00;;;;;;;18.65;9.57;;;;;;;;;;5010028;28;20160;-78
2022/10/07 06:48:26;;;;;;;19.38;10.32;;;;;;;;;;5004760;28;20619;-78
2022/10/07 06:50:53;;;;;;;18.50;9.48;;;;;;;;;;5015397;28;20038;-78
2022/10/07 06:53:19;;;;;;;14.20;7.97;;;;;;;;;;5004900;28;20032;-78
2022/10/07 06:55:45;;;;;;;17.85;9.25;;;;;;;;;;5005863;28;21708;-78
2022/10/07 06:58:11;;;;;;;16.60;8.73;;;;;;;;;;5003230;28;20034;-78
2022/10/07 07:00:37;;;;;;;13.88;8.90;;;;;;;;;;4996884;28;20370;-78
2022/10/07 07:03:03;;;;;;;11.30;7.97;;;;;;;;;;5008770;28;20033;-78
2022/10/07 07:05:37;;;;;;;10.70;7.18;;;;;;;;;;5010227;28;20554;-78
2022/10/07 07:08:03;;;;;;;13.93;8.07;;;;;;;;;;5011775;28;20042;-78
2022/10/07 07:10:29;;;;;;;13.23;7.18;;;;;;;;;;4997071;28;20070;-78
2022/10/07 07:12:55;;;;;;;17.30;7.68;;;;;;;;;;4994302;28;20062;-78
2022/10/07 07:15:21;;;;;;;15.95;6.40;;;;;;;;;;5015971;28;20135;-78
2022/10/07 07:17:48;;;;;;;15.55;6.60;;;;;;;;;;5007111;28;20903;-78
2022/10/07 07:20:14;;;;;;;7.97;5.18;;;;;;;;;;4995467;28;20477;-77
2022/10/07 07:22:40;;;;;;;14.57;6.85;;;;;;;;;;5011484;28;20465;-78
2022/10/07 07:25:08;;;;;;;11.82;6.65;;;;;;;;;;4986020;28;20519;-78
2022/10/07 07:27:35;;;;;;;10.45;6.93;;;;;;;;;;4994327;28;20564;-78
2022/10/07 07:30:01;;;;;;;14.02;7.43;;;;;;;;;;5009301;28;20038;-77
2022/10/07 07:32:29;;;;;;;15.52;7.80;;;;;;;;;;5018134;28;20053;-77
2022/10/07 07:34:55;;;;;;;14.88;7.20;;;;;;;;;;5006872;28;20049;-78
2022/10/07 07:37:21;;;;;;;17.58;6.65;;;;;;;;;;5010800;28;20026;-78
2022/10/07 07:39:47;;;;;;;10.70;6.47;;;;;;;;;;5005224;28;20139;-78
2022/10/07 07:42:14;;;;;;;11.32;6.82;;;;;;;;;;5010708;28;20026;-77
2022/10/07 07:44:40;;;;;;;13.93;7.20;;;;;;;;;;5007423;28;20350;-77
2022/10/07 07:47:07;;;;;;;16.42;7.07;;;;;;;;;;5006767;28;20109;-77
2022/10/07 07:49:34;;;;;;;15.40;7.72;;;;;;;;;;5008022;28;20101;-78
2022/10/07 07:52:01;;;;;;;13.45;6.90;;;;;;;;;;5006937;28;20385;-77
2022/10/07 07:54:27;;;;;;;15.07;6.43;;;;;;;;;;5007685;28;20030;-78
2022/10/07 07:56:54;;;;;;;14.18;6.63;;;;;;;;;;5001882;28;20134;-77
2022/10/07 07:59:20;;;;;;;15.95;7.15;;;;;;;;;;4998070;28;20029;-78
2022/10/07 08:01:46;;;;;;;17.67;6.75;;;;;;;;;;4995967;28;20066;-78
2022/10/07 08:04:14;;;;;;;21.15;7.05;;;;;;;;;;5002045;28;20041;-78
2022/10/07 08:06:40;;;;;;;20.13;8.07;;;;;;;;;;5013605;28;20121;-78
2022/10/07 08:09:06;;;;;;;18.85;6.72;;;;;;;;;;5005733;28;20038;-78
2022/10/07 08:11:32;;;;;;;16.52;7.65;;;;;;;;;;4994092;28;20034;-78
2022/10/07 08:13:59;;;;;;;17.65;7.45;;;;;;;;;;5004107;28;20037;-78
2022/10/07 08:16:26;;;;;;;14.65;6.05;;;;;;;;;;4998093;28;20026;-78
2022/10/07 08:18:54;;;;;;;16.67;5.90;;;;;;;;;;4996506;28;20540;-78
2022/10/07 08:21:21;;;;;;;14.85;5.78;;;;;;;;;;5004600;28;20033;-78
2022/10/07 08:23:47;;;;;;;8.23;4.32;;;;;;;;;;5006787;28;20389;-78
2022/10/07 08:26:14;;;;;;;11.40;4.80;;;;;;;;;;5003230;28;20065;-79
2022/10/07 08:28:40;;;;;;;7.05;3.47;;;;;;;;;;5006956;28;20105;-79
2022/10/07 08:31:07;;;;;;;9.68;3.85;;;;;;;;;;5008314;28;20126;-79
2022/10/07 08:33:34;;;;;;;10.95;3.88;;;;;;;;;;5006564;28;20030;-78
2022/10/07 08:36:01;;;;;;;12.15;4.03;;;;;;;;;;5005724;28;20037;-78
2022/10/07 08:38:31;;;;;;;8.80;3.60;;;;;;;;;;4997928;28;20138;-79
2022/10/07 08:40:58;;;;;;;10.75;3.97;;;;;;;;;;5010071;28;20056;-79
2022/10/07 08:43:24;;;;;;;10.93;3.60;;;;;;;;;;5008088;28;20384;-78
2022/10/07 08:45:54;;;;;;;9.73;4.22;;;;;;;;;;5005202;28;20117;-79
2022/10/07 08:48:23;;;;;;;8.80;3.30;;;;;;;;;;4996892;28;20073;-79
2022/10/07 08:51:03;;;;;;;8.52;3.13;;;;;;;;;;5009060;28;20113;-79
2022/10/07 08:53:32;;;;;;;9.07;3.13;;;;;;;;;;4999090;28;20034;-79
2022/10/07 08:56:08;;;;;;;9.55;2.85;;;;;;;;;;5006187;28;20380;-79
2022/10/07 08:58:48;;;;;;;10.98;2.63;;;;;;;;;;5016696;28;20499;-79
2022/10/07 09:01:33;;;;;;;7.93;3.08;;;;;;;;;;5002191;28;20394;-79
2022/10/07 09:04:14;;;;;;;6.68;2.42;;;;;;;;;;5006354;28;20112;-79
2022/10/07 09:06:42;;;;;;;6.82;2.70;;;;;;;;;;5004938;28;20054;-79
2022/10/07 09:09:16;;;;;;;8.68;2.80;;;;;;;;;;5009377;28;20041;-79
2022/10/07 09:11:44;;;;;;;7.30;2.72;;;;;;;;;;5008988;28;20050;-79
2022/10/07 09:14:17;;;;;;;8.05;2.75;;;;;;;;;;5009421;28;20080;-79
2022/10/07 09:16:44;;;;;;;7.22;2.80;;;;;;;;;;5007010;28;20060;-79
2022/10/07 09:19:31;;;;;;;5.07;2.65;;;;;;;;;;5008229;28;20084;-80
2022/10/07 09:22:00;;;;;;;7.88;2.75;;;;;;;;;;5012217;28;20045;-79
2022/10/07 09:24:28;;;;;;;6.30;2.50;;;;;;;;;;5003263;28;20515;-79
2022/10/07 09:26:56;;;;;;;6.68;2.38;;;;;;;;;;4999567;28;20070;-79
2022/10/07 09:29:23;;;;;;;5.22;2.55;;;;;;;;;;5008754;28;20357;-79
2022/10/07 09:31:49;;;;;;;6.63;2.78;;;;;;;;;;5001158;28;20029;-79
2022/10/07 09:34:23;;;;;;;8.35;2.83;;;;;;;;;;5009460;28;20054;-80
2022/10/07 09:37:08;;;;;;;6.45;2.63;;;;;;;;;;4997482;28;20066;-79
2022/10/07 09:39:34;;;;;;;6.40;2.88;;;;;;;;;;5001510;28;20093;-79
2022/10/07 09:42:01;;;;;;;6.32;2.72;;;;;;;;;;5003790;28;20034;-79
2022/10/07 09:44:28;;;;;;;8.52;2.67;;;;;;;;;;5006131;28;20038;-79
2022/10/07 09:46:56;;;;;;;7.32;2.75;;;;;;;;;;5000759;28;20049;-79
2022/10/07 09:49:28;;;;;;;7.18;2.65;;;;;;;;;;5000332;28;20038;-79
2022/10/07 09:51:58;;;;;;;8.48;2.58;;;;;;;;;;5003091;28;20045;-79
2022/10/07 09:54:24;;;;;;;5.75;2.67;;;;;;;;;;5015391;28;20029;-79
2022/10/07 09:56:54;;;;;;;12.13;3.47;;;;;;;;;;5001797;28;20099;-79
2022/10/07 09:59:22;;;;;;;5.85;2.33;;;;;;;;;;5009199;28;20068;-79
2022/10/07 10:01:49;;;;;;;11.30;3.55;;;;;;;;;;5009071;28;20049;-79
2022/10/07 10:04:16;;;;;;;10.70;3.00;;;;;;;;;;5004957;28;20490;-79
2022/10/07 10:06:49;;;;;;;5.78;2.47;;;;;;;;;;4996620;28;20058;-79
2022/10/07 10:09:23;;;;;;;6.85;2.75;;;;;;;;;;5008675;28;20121;-80
2022/10/07 10:12:21;;;;;;;10.18;2.80;;;;;;;;;;5006743;28;20037;-79
2022/10/07 10:14:49;;;;;;;8.40;2.83;;;;;;;;;;4950910;28;20065;-79
2022/10/07 10:17:22;;;;;;;10.88;3.08;;;;;;;;;;5013515;28;20466;-79
2022/10/07 10:19:47;;;;;;;9.18;2.80;;;;;;;;;;5008216;28;20037;-79
2022/10/07 10:22:24;;;;;;;6.03;2.30;;;;;;;;;;5007683;28;20038;-79
2022/10/07 10:27:41;;;;;;;10.63;2.60;;;;;;;;;;5002704;28;20100;-79
2022/10/07 10:30:07;;;;;;;;;;;;;;;;;;5008150;28;20045;-80
2022/10/07 10:32:50;;;;;;;6.97;2.53;;;;;;;;;;5008916;28;20583;-79
2022/10/07 10:35:25;;;;;;;6.88;2.42;;;;;;;;;;5017935;28;20153;-80
2022/10/07 10:38:04;;;;;;;8.23;3.47;;;;;;;;;;5012138;28;20029;-80
2022/10/07 10:40:39;;;;;;;7.60;3.20;;;;;;;;;;5009391;28;20045;-79
2022/10/07 10:43:05;;;;;;;10.75;3.55;;;;;;;;;;5005794;28;20128;-79
2022/10/07 10:45:34;;;;;;;7.50;3.00;;;;;;;;;;5006386;28;20116;-79
2022/10/07 10:48:03;;;;;;;8.07;3.13;;;;;;;;;;5007610;28;20034;-80
2022/10/07 10:50:42;;;;;;;8.35;2.63;;;;;;;;;;5009235;28;20046;-80
2022/10/07 10:53:23;;;;;;;9.57;3.35;;;;;;;;;;5007959;28;20022;-79
2022/10/07 10:55:59;;;;;;;8.40;2.60;;;;;;;;;;5006216;28;20034;-80
2022/10/07 10:58:25;;;;;;;10.15;2.72;;;;;;;;;;5006482;28;20097;-79
2022/10/07 11:00:57;;;;;;;10.05;2.80;;;;;;;;;;5002643;28;20164;-79
2022/10/07 11:03:32;;;;;;;9.20;2.63;;;;;;;;;;5008367;28;20059;-80
2022/10/07 11:06:00;;;;;;;10.70;2.78;;;;;;;;;;5007459;28;20049;-80
2022/10/07 11:08:31;;;;;;;5.65;2.72;;;;;;;;;;5013509;28;20057;-79
2022/10/07 11:10:58;;;;;;;6.07;2.72;;;;;;;;;;5005068;28;20107;-79
2022/10/07 11:13:30;;;;;;;7.25;3.33;;;;;;;;;;5010117;28;20029;-79
2022/10/07 11:16:04;;;;;;;11.50;2.63;;;;;;;;;;5013232;28;20042;-80
2022/10/07 11:18:36;;;;;;;6.28;2.10;;;;;;;;;;5010542;28;20192;-79
2022/10/07 11:21:06;;;;;;;8.43;2.80;;;;;;;;;;5002177;28;20042;-79
2022/10/07 11:23:51;;;;;;;8.30;2.35;;;;;;;;;;5002437;28;20153;-79
2022/10/07 11:26:39;;;;;;;7.57;2.17;;;;;;;;;;5002443;28;20161;-79
2022/10/07 11:29:14;;;;;;;4.38;1.98;;;;;;;;;;5006187;28;20511;-79
2022/10/07 11:31:44;;;;;;;11.60;2.50;;;;;;;;;;5009718;28;20033;-79
2022/10/07 11:34:16;;;;;;;7.15;2.28;;;;;;;;;;5010505;28;20116;-79
2022/10/07 11:36:51;;;;;;;11.23;2.35;;;;;;;;;;5004917;28;20030;-79
2022/10/07 11:39:17;;;;;;;8.68;3.25;;;;;;;;;;5008969;28;20683;-79
2022/10/07 11:42:02;;;;;;;5.95;2.67;;;;;;;;;;5007332;28;20049;-79
2022/10/07 11:44:32;;;;;;;4.97;2.20;;;;;;;;;;5005466;28;20034;-79
2022/10/07 11:47:01;;;;;;;8.20;2.30;;;;;;;;;;4999816;28;20046;-79
2022/10/07 11:49:34;;;;;;;8.20;2.55;;;;;;;;;;4999832;28;20034;-79
2022/10/07 11:52:02;;;;;;;5.75;2.50;;;;;;;;;;5005486;28;20033;-79
2022/10/07 11:54:30;;;;;;;7.80;2.25;;;;;;;;;;5011562;28;20108;-79
2022/10/07 11:56:59;;;;;;;9.32;2.65;;;;;;;;;;5009250;28;20044;-79
2022/10/07 11:59:28;;;;;;;9.25;2.38;;;;;;;;;;4989832;28;20033;-80
2022/10/07 12:01:54;;;;;;;8.02;2.65;;;;;;;;;;5005102;28;20514;-79
2022/10/07 12:04:20;;;;;;;14.15;2.78;;;;;;;;;;5000415;28;20034;-79
2022/10/07 12:07:05;;;;;;;10.30;2.38;;;;;;;;;;5004750;28;20133;-79
2022/10/07 12:09:49;;;;;;;5.13;2.15;;;;;;;;;;5000639;28;20041;-79
2022/10/07 12:12:15;;;;;;;7.97;2.80;;;;;;;;;;5000208;28;20548;-79
2022/10/07 12:14:43;;;;;;;10.65;2.20;;;;;;;;;;5007904;28;20057;-79
2022/10/07 12:17:20;;;;;;;7.30;2.30;;;;;;;;;;5013296;28;20044;-79
2022/10/07 12:19:46;;;;;;;8.63;2.38;;;;;;;;;;5007392;28;20065;-79
2022/10/07 12:22:12;;;;;;;6.35;2.10;;;;;;;;;;5012125;28;20097;-79
2022/10/07 12:24:42;;;;;;;6.57;2.60;;;;;;;;;;5002808;28;20030;-79
2022/10/07 12:27:12;;;;;;;7.72;2.22;;;;;;;;;;5000100;28;20046;-79
2022/10/07 12:29:47;;;;;;;5.72;2.58;;;;;;;;;;4999699;28;20084;-79
2022/10/07 12:32:33;;;;;;;7.90;2.60;;;;;;;;;;5008811;28;20082;-79
2022/10/07 12:35:20;;;;;;;6.70;2.45;;;;;;;;;;5013513;28;20559;-79
2022/10/07 12:37:48;;;;;;;10.05;2.60;;;;;;;;;;5009497;28;20112;-79
2022/10/07 12:40:20;;;;;;;6.47;2.08;;;;;;;;;;5002113;28;20033;-79
2022/10/07 12:43:10;;;;;;;7.03;2.20;;;;;;;;;;4999166;28;20716;-79
2022/10/07 12:45:39;;;;;;;8.40;2.45;;;;;;;;;;4978853;28;20045;-79
2022/10/07 12:48:06;;;;;;;6.60;2.05;;;;;;;;;;5009909;28;20048;-79
2022/10/07 12:50:33;;;;;;;5.97;2.28;;;;;;;;;;5001400;28;20042;-79
2022/10/07 12:53:01;;;;;;;9.65;2.55;;;;;;;;;;5011464;28;20027;-79
2022/10/07 12:55:35;;;;;;;6.47;2.47;;;;;;;;;;5017573;28;20026;-79
2022/10/07 13:01:11;;;;;;;5.40;2.20;;;;;;;;;;5007202;28;20515;-79
2022/10/07 13:03:49;;;;;;;6.38;2.05;;;;;;;;;;4976357;28;20077;-79
2022/10/07 13:06:18;;;;;;;7.65;2.50;;;;;;;;;;5005059;28;20587;-79
2022/10/07 13:08:44;;;;;;;8.48;2.40;;;;;;;;;;5015781;28;20048;-79
2022/10/07 13:11:29;;;;;;;8.23;2.65;;;;;;;;;;5011959;28;20029;-78
2022/10/07 13:14:14;;;;;;;7.65;2.47;;;;;;;;;;4997999;28;20074;-79
2022/10/07 13:16:49;;;;;;;6.65;2.47;;;;;;;;;;5012563;28;20034;-79
2022/10/07 13:19:15;;;;;;;9.40;2.47;;;;;;;;;;5000124;28;20029;-79
2022/10/07 13:21:45;;;;;;;5.15;2.33;;;;;;;;;;5009290;28;20061;-79
2022/10/07 13:24:17;;;;;;;5.85;2.53;;;;;;;;;;4997422;28;20066;-79
2022/10/07 13:26:44;;;;;;;9.18;2.80;;;;;;;;;;5013611;28;20064;-79
2022/10/07 13:29:19;;;;;;;6.53;2.70;;;;;;;;;;5012133;28;20112;-79
2022/10/07 13:32:01;;;;;;;6.38;2.15;;;;;;;;;;5014575;28;20037;-79
2022/10/07 13:34:27;;;;;;;6.80;2.47;;;;;;;;;;5012633;28;20053;-79
2022/10/07 13:36:53;;;;;;;5.68;2.28;;;;;;;;;;5014539;28;20363;-79
2022/10/07 13:39:21;;;;;;;4.85;2.22;;;;;;;;;;5014998;28;20112;-79
2022/10/07 13:41:48;;;;;;;9.68;2.10;;;;;;;;;;5008932;28;20092;-79
2022/10/07 13:44:17;;;;;;;5.40;2.22;;;;;;;;;;5008765;28;20034;-79
2022/10/07 13:46:49;;;;;;;5.40;2.20;;;;;;;;;;5007466;28;20026;-78
2022/10/07 13:49:20;;;;;;;6.82;2.20;;;;;;;;;;5017114;28;20069;-79
2022/10/07 13:51:47;;;;;;;6.77;2.43;;;;;;;;;;5011226;28;20038;-79
2022/10/07 13:54:25;;;;;;;12.70;2.67;;;;;;;;;;5010467;28;20033;-79
2022/10/07 13:56:52;;;;;;;7.55;2.63;;;;;;;;;;5017270;28;20125;-79
2022/10/07 13:59:18;;;;;;;8.30;2.40;;;;;;;;;;5003392;28;20080;-79
2022/10/07 14:01:47;;;;;;;8.07;2.42;;;;;;;;;;5003667;28;20037;-79
2022/10/07 14:04:20;;;;;;;7.22;2.38;;;;;;;;;;5014157;28;20030;-79
2022/10/07 14:06:50;;;;;;;7.95;2.78;;;;;;;;;;5000104;28;20037;-79
2022/10/07 14:09:25;;;;;;;6.18;1.67;;;;;;;;;;4998006;28;20057;-78
2022/10/07 14:12:00;;;;;;;5.28;1.83;;;;;;;;;;5001530;28;20109;-79
2022/10/07 14:14:31;;;;;;;7.85;2.53;;;;;;;;;;5006587;28;20026;-79
2022/10/07 14:17:00;;;;;;;10.63;2.70;;;;;;;;;;5007682;28;20038;-79
2022/10/07 14:19:30;;;;;;;8.40;2.30;;;;;;;;;;4998612;28;20034;-79
2022/10/07 14:21:56;;;;;;;7.82;2.38;;;;;;;;;;5014183;28;20127;-79
2022/10/07 14:24:22;;;;;;;14.70;2.10;;;;;;;;;;5006991;28;20739;-79
2022/10/07 14:26:48;;;;;;;9.02;2.72;;;;;;;;;;5008407;28;20034;-79
2022/10/07 14:29:34;;;;;;;8.77;2.60;;;;;;;;;;5005891;28;20786;-79
2022/10/07 14:35:17;;;;;;;5.28;2.08;;;;;;;;;;5000832;28;20053;-79
2022/10/07 14:37:43;;;;;;;6.38;2.08;;;;;;;;;;4997111;28;20037;-79
2022/10/07 14:40:22;;;;;;;7.75;2.35;;;;;;;;;;5002457;28;20037;-79
2022/10/07 14:42:57;;;;;;;8.82;2.35;;;;;;;;;;5000400;28;20029;-79
2022/10/07 14:45:23;;;;;;;6.65;2.28;;;;;;;;;;5006776;28;20762;-79
2022/10/07 14:47:50;;;;;;;5.32;2.35;;;;;;;;;;5006421;28;20030;-79
2022/10/07 14:50:18;;;;;;;8.52;2.75;;;;;;;;;;5011418;28;20057;-79
2022/10/07 14:52:46;;;;;;;5.03;2.40;;;;;;;;;;5008715;28;20034;-79
2022/10/07 14:55:15;;;;;;;8.82;2.58;;;;;;;;;;5013378;28;20030;-79
2022/10/07 14:57:41;;;;;;;6.53;2.10;;;;;;;;;;5012021;28;20030;-79
2022/10/07 15:00:12;;;;;;;8.65;2.10;;;;;;;;;;5014080;28;20409;-79
2022/10/07 15:02:38;;;;;;;7.07;2.28;;;;;;;;;;5003664;28;20733;-79